Flight Track Log - Related Links

Times and Time Zones

All times are in EDT time to prevent confusion due to time zone crossing. See the C-GYPG flight status page for this flight to view local times or setup timezone preferences in your user account.

Time Position Orientation Groundspeed Altitude Reporting Facility
EDT Latitude Longitude Course Direction KTS MPH feet Rate Location/Type
Sat 10:36:22 AM 50.0333 -97.0167 180° South 80 92 1,400  Level Winnipeg Center
Sat 10:37:22 AM 50.0167 -97.0167 180° South 80 92 2,100 650 Climbing Winnipeg Center
Sat 10:38:22 AM 50.0000 -97.0167 180° South 80 92 2,700 500 Climbing Winnipeg Center
Sat 10:39:22 AM 49.9833 -97.0500 232° Southwest 100 115 3,100 150 Climbing Winnipeg Center
Sat 10:40:22 AM 49.9833 -97.1000 270° West 120 138 3,000 -50 Descending Winnipeg Center
Sat 10:41:22 AM 49.9833 -97.1500 270° West 120 138 3,000 -50 Level Winnipeg Center
Sat 10:42:22 AM 49.9667 -97.2000 243° Southwest 120 138 2,900  Descending Winnipeg Center
Sat 10:43:22 AM 49.9667 -97.2500 270° West 120 138 3,000 50 Climbing Winnipeg Center
Sat 10:44:22 AM 49.9667 -97.2833 270° West 120 138 3,000  Level Winnipeg Center
Sat 10:45:22 AM 49.9833 -97.3333 297° West 130 150 3,000  Level Winnipeg Center
Sat 10:46:22 AM 50.0000 -97.3833 297° West 120 138 3,000  Level Winnipeg Center
Sat 10:47:22 AM 50.0167 -97.4333 297° West 120 138 3,000  Level Winnipeg Center
Sat 10:48:22 AM 50.0167 -97.4667 270° West 120 138 3,000  Level Winnipeg Center
Sat 10:49:22 AM 50.0333 -97.4333 52° Northeast 120 138 3,000  Level Winnipeg Center
Sat 10:50:22 AM 50.0167 -97.4167 147° Southeast 100 115 3,000  Level Winnipeg Center
Sat 10:51:22 AM 50.0000 -97.3833 128° Southeast 100 115 3,000  Level Winnipeg Center
Sat 10:52:22 AM 49.9667 -97.3500 147° Southeast 100 115 3,000 -350 Level Winnipeg Center
Sat 10:53:22 AM 49.9500 -97.3333 147° Southeast 100 115 2,300 -600 Descending Winnipeg Center
Sat 10:54:22 AM 49.9333 -97.3000 128° Southeast 100 115 1,800 -550 Descending Winnipeg Center
Sat 10:55:22 AM 49.9167 -97.2500 117° Southeast 100 115 1,200 -150 Descending Winnipeg Center
Sat 10:56:22 AM 49.9000 -97.2500 180° South 100 115 1,500 400 Climbing Winnipeg Center
Sat 10:57:22 AM 49.8833 -97.3000 243° Southwest 100 115 2,000 500 Climbing Winnipeg Center
Sat 10:58:22 AM 49.8833 -97.3500 270° West 100 115 2,500 450 Climbing Winnipeg Center
Sat 10:59:22 AM 49.9167 -97.3833 327° Northwest 110 127 2,900 250 Climbing Winnipeg Center
Sat 11:00:22 AM 49.9333 -97.4000 327° Northwest 110 127 3,000 50 Climbing Winnipeg Center
Sat 11:01:22 AM 49.9500 -97.4667 291° West 110 127 3,000 -50 Level Winnipeg Center
Sat 11:02:22 AM 49.9833 -97.4667 360° North 110 127 2,900  Descending Winnipeg Center
Sat 11:03:22 AM 50.0000 -97.4000 69° East 110 127 3,000 50 Climbing Winnipeg Center
Sat 11:04:22 AM 49.9833 -97.3833 147° Southeast 100 115 3,000 -100 Level Winnipeg Center
Sat 11:05:22 AM 49.9667 -97.3500 128° Southeast 100 115 2,800 -350 Descending Winnipeg Center
Sat 11:06:22 AM 49.9500 -97.3000 117° Southeast 100 115 2,300 -600 Descending Winnipeg Center
Sat 11:07:22 AM 49.9333 -97.2833 147° Southeast 100 115 1,600 -600 Descending Winnipeg Center
Sat 11:08:22 AM 49.9167 -97.2500 128° Southeast 100 115 1,100 -100 Descending Winnipeg Center
Sat 11:09:22 AM 49.9000 -97.2333 147° Southeast 120 138 1,400 550 Climbing Winnipeg Center
Sat 11:10:22 AM 49.9000 -97.1667 90° East 100 115 2,200 650 Climbing Winnipeg Center
Sat 11:11:22 AM 49.9167 -97.1167 63° Northeast 110 127 2,700 400 Climbing Winnipeg Center
Sat 11:12:22 AM 49.9167 -97.0667 90° East 130 150 3,000 150 Climbing Winnipeg Center
Sat 11:13:22 AM 49.9500 -97.0500 18° North 120 138 3,000 -50 Level Winnipeg Center
Sat 11:14:22 AM 49.9667 -97.0167 52° Northeast 120 138 2,900 -50 Descending Winnipeg Center
Sat 11:15:22 AM 50.0000 -97.0000 18° North 120 138 2,900  Level Winnipeg Center
Sat 11:16:22 AM 50.0333 -96.9667 33° Northeast 120 138 2,900  Level Winnipeg Center
Sat 11:17:22 AM 50.0667 -96.9667 360° North 120 138 2,900  Level Winnipeg Center
Sat 11:18:22 AM 50.1000 -96.9333 33° Northeast 120 138 2,900  Level Winnipeg Center
Sat 11:19:22 AM 50.1167 -96.9167 33° Northeast 120 138 2,900 50 Level Winnipeg Center
Sat 11:20:22 AM 50.1500 -96.8833 33° Northeast 120 138 3,000 50 Climbing Winnipeg Center
Sat 11:21:22 AM 50.1833 -96.8667 18° North 120 138 3,000  Level Winnipeg Center
Sat 11:22:22 AM 50.2000 -96.8833 327° Northwest 110 127 3,000  Level Winnipeg Center
Sat 11:23:22 AM 50.2167 -96.9333 298° West 110 127 3,000  Level Winnipeg Center
Sat 11:24:22 AM 50.2167 -96.9667 270° West 100 115 3,000 -150 Level Winnipeg Center
Sat 11:25:22 AM 50.1833 -97.0000 213° Southwest 100 115 2,700 -400 Descending Winnipeg Center
Sat 11:26:22 AM 50.1667 -97.0000 180° South 100 115 2,200 -300 Descending Winnipeg Center
Sat 11:27:22 AM 50.1333 -97.0167 198° South 90 104 2,100 -200 Descending Winnipeg Center
Sat 11:28:22 AM 50.1167 -97.0167 180° South 100 115 1,800 -400 Descending Winnipeg Center
Sat 11:29:22 AM 50.0833 -97.0167 180° South 90 104 1,300 -350 Descending Winnipeg Center
Sat 11:30:22 AM 50.0667 -97.0167 180° South 80 92 1,100 -250 Descending Winnipeg Center
Sat 11:31:22 AM 50.0500 -97.0167 180° South 60 69 800 -300 Descending Winnipeg Center

Login

Don't have an account? Register now (free) for customized features, flight alerts, and more!